Norwegian Wind — C6LG6 — position and weather

sailwx.info

Track history (hours):
 
Tides and Currents Weather Stations Pressure Air Temp Water Temp Dewpoint Dewpoint Depression Visibility Wind Speed Wind Dir Waves Ship Positions

Norwegian Wind

Operator: Norwegian Cruise Line

Last reported at 2019-Feb-15 18:00 UTC. Time now 2019-Feb-16 04:12 UTC.
Position N 24°48' E 122°24'.

Type: Passenger vessel. MMSI: 308273000.

Wind from 350 at 16 knots

Barometer 1017.3 mb
Air temperature 20.0 ° C
Visibility: greater than 5.4 NM
Dewpoint 18.5 ° C
Water temperature 22.0 ° C

Date/timePositionNaut miles runAvg speedWind from/ knotsBaromVisibWave heightAir tempDewpointWater temp
2019-Feb-15 18:00N 24°48' E 122°24'3310.9 350 / 161017.3 5.4 20.018.522.0
2019-Feb-15 15:00N 25°06' E 121°54'11 3.6 020 / 211018.2 5.4 18.016.425.9
2019-Feb-15 12:00N 25°06' E 121°42'57 6.3 030 / 81018.0 5.4 19.015.925.9
2019-Feb-15 03:00N 24°24' E 122°24'27 4.6 340 / 161018.3 5.4 22.019.025.9
2019-Feb-14 21:00N 24°24' E 122°54'29 9.7 070 / 161016.9 5.4 22.020.625.9
2019-Feb-14 18:00N 24°48' E 122°36'3511.6 060 / 191017.5 2.2 22.020.622.0
2019-Feb-14 15:00N 25°00' E 122°00'812.6 260 / 121019.8 5.4 19.017.526.8
2019-Feb-14 14:20N 25°08' E 122°01'412.2
2019-Feb-14 13:59N 25°11' E 121°57'611.6
2019-Feb-14 13:28N 25°12' E 121°50'511.3
2019-Feb-14 12:59N 25°10' E 121°45'2 3.0
2019-Feb-14 12:25N 25°08' E 121°45'0 0.0
2019-Feb-14 11:58N 25°08' E 121°45'0 0.0
2019-Feb-14 11:28N 25°08' E 121°45'0 0.0
2019-Feb-14 10:58N 25°08' E 121°45'0 0.0
2019-Feb-14 10:25N 25°08' E 121°45'0 0.0
2019-Feb-14 09:58N 25°08' E 121°45'0 0.0
2019-Feb-14 09:28N 25°08' E 121°45'0 0.0
2019-Feb-14 08:56N 25°08' E 121°45'0 0.0
2019-Feb-14 08:28N 25°08' E 121°45'0 0.0
2019-Feb-14 08:00N 25°08' E 121°45'0 0.0
2019-Feb-14 07:30N 25°08' E 121°45'0 0.0
2019-Feb-14 06:57N 25°08' E 121°45'0 0.0
2019-Feb-14 06:30N 25°08' E 121°45'0 0.0
2019-Feb-14 06:00N 25°08' E 121°45'0 0.7
2019-Feb-14 05:29N 25°08' E 121°45'3 5.0
2019-Feb-14 04:58N 25°11' E 121°45'611.4
2019-Feb-14 04:26N 25°17' E 121°44'613.5
2019-Feb-14 04:00N 25°23' E 121°43'2 1.8
2019-Feb-14 03:00N 25°24' E 121°42'5302.8 020 / 231021.2 5.4 19.015.926.8
2019-Feb-14 02:58N 25°25' E 121°48'5 9.6
2019-Feb-14 02:26N 25°21' E 121°50'4 9.0
2019-Feb-14 01:59N 25°17' E 121°53'4 8.5
2019-Feb-14 01:27N 25°14' E 121°56'4 9.0
2019-Feb-14 01:00N 25°12' E 122°00'5 8.6
2019-Feb-14 00:28N 25°11' E 122°05'4 8.3
2019-Feb-13 23:56N 25°10' E 122°10'50 8.5
2019-Feb-13 18:00N 24°48' E 123°00'67 7.5 070 / 161018.410.8 22.020.625.9
2019-Feb-13 09:00N 24°18' E 124°06'50 4.2 020 / 81018.1 5.4 23.020.125.9
2019-Feb-12 21:00N 24°42' E 123°18'4515.1 250 / 121019.510.8 22.022.025.9
2019-Feb-12 18:00N 24°54' E 122°30'29 7.9 240 / 161018.910.8 21.021.025.9
2019-Feb-12 14:20N 25°09' E 122°03'1611.3
2019-Feb-12 12:57N 25°09' E 121°45'1 2.7
2019-Feb-12 12:31N 25°08' E 121°45'0 0.0
2019-Feb-12 11:59N 25°08' E 121°45'0 0.0
2019-Feb-12 11:29N 25°08' E 121°45'0 0.0
2019-Feb-12 11:00N 25°08' E 121°45'0 0.0
2019-Feb-12 10:28N 25°08' E 121°45'0 0.0
2019-Feb-12 09:58N 25°08' E 121°45'0 0.0
2019-Feb-12 09:28N 25°08' E 121°45'0 0.0
2019-Feb-12 08:58N 25°08' E 121°45'0 0.0
2019-Feb-12 08:28N 25°08' E 121°45'0 0.0
2019-Feb-12 07:58N 25°08' E 121°45'0 0.0
2019-Feb-12 07:21N 25°08' E 121°45'0 0.0
2019-Feb-12 06:57N 25°08' E 121°45'0 0.2
2019-Feb-12 06:28N 25°08' E 121°45'2 3.6
2019-Feb-12 05:57N 25°10' E 121°45'613.4
2019-Feb-12 05:30N 25°16' E 121°45'611.4
2019-Feb-12 04:59N 25°19' E 121°50'815.1
2019-Feb-12 04:28N 25°14' E 121°57'917.1
2019-Feb-12 03:58N 25°12' E 122°06'816.1
2019-Feb-12 03:28N 25°11' E 122°15'1530.5
2019-Feb-12 03:00N 25°06' E 122°30'8714.5 080 / 171023.4 5.4 22.019.025.9
2019-Feb-11 21:00N 25°00' E 124°06'4916.4 040 / 211022.4 5.4 20.018.525.9
2019-Feb-11 18:00N 24°54' E 125°00'12 4.1 050 / 191022.2 5.4 20.018.522.9
2019-Feb-11 15:00N 24°48' E 125°12'0 0.0 050 / 191023.2 5.4 20.016.925.9
2019-Feb-11 12:00N 24°48' E 125°12'49 3.3 050 / 211023.8 5.4 20.016.925.9
2019-Feb-10 21:00N 24°54' E 124°18'3311.1 010 / 291020.6 5.4 20.016.925.9
2019-Feb-10 18:00N 25°00' E 123°42'6610.9 030 / 191020.6 5.4 21.016.419.7
2019-Feb-10 12:00N 25°06' E 122°30'1014.0 030 / 191021.7 5.4 20.016.919.7
2019-Feb-10 11:15N 25°10' E 122°19'415.3
2019-Feb-10 10:58N 25°10' E 122°15'715.5
2019-Feb-10 10:29N 25°11' E 122°07'916.6
2019-Feb-10 09:57N 25°12' E 121°57'816.2
2019-Feb-10 09:26N 25°12' E 121°48'4 9.9
2019-Feb-10 08:59N 25°08' E 121°45'1 1.0
2019-Feb-10 08:28N 25°08' E 121°45'0 0.0
2019-Feb-10 07:55N 25°08' E 121°45'0 0.0
2019-Feb-10 07:25N 25°08' E 121°45'0 0.0
2019-Feb-10 06:55N 25°08' E 121°45'0 0.0
2019-Feb-10 06:22N 25°08' E 121°45'0 0.0
2019-Feb-10 05:58N 25°08' E 121°45'0 0.0
2019-Feb-10 05:28N 25°08' E 121°45'0 0.0
2019-Feb-10 04:58N 25°08' E 121°45'0 0.0
2019-Feb-10 04:25N 25°08' E 121°45'0 0.0
2019-Feb-10 03:55N 25°08' E 121°45'0 0.0
2019-Feb-10 03:25N 25°08' E 121°45'0 0.0
2019-Feb-10 02:58N 25°08' E 121°45'0 0.3
2019-Feb-10 02:27N 25°08' E 121°45'2 3.8
2019-Feb-10 01:58N 25°10' E 121°45'613.6
2019-Feb-10 01:30N 25°16' E 121°43'611.8
2019-Feb-10 00:58N 25°19' E 121°49'814.6
2019-Feb-10 00:27N 25°19' E 121°57'511.3
2019-Feb-10 00:00N 25°17' E 121°52'610.8
2019-Feb-09 23:28N 25°16' E 121°46'1 2.1
2019-Feb-09 22:59N 25°17' E 121°46'1 2.1
2019-Feb-09 22:28N 25°18' E 121°47'1 1.7
2019-Feb-09 21:56N 25°19' E 121°47'1 1.7
2019-Feb-09 21:30N 25°20' E 121°47'2 3.4
2019-Feb-09 21:00N 25°18' E 121°48'376.7 020 / 251020.5 5.4 16.014.419.7
2019-Feb-09 20:57N 25°21' E 121°48'1 1.8
2019-Feb-09 20:27N 25°21' E 121°48'1 1.7
2019-Feb-09 19:55N 25°22' E 121°48'1 2.3
2019-Feb-09 19:30N 25°23' E 121°48'1 1.8
2019-Feb-09 19:00N 25°24' E 121°48'1 2.0
2019-Feb-09 18:30N 25°25' E 121°49'1 2.1
2019-Feb-09 17:58N 25°26' E 121°50'1 2.3
2019-Feb-09 17:25N 25°26' E 121°51'1 1.5
2019-Feb-09 16:57N 25°26' E 121°51'4 7.6
2019-Feb-09 16:30N 25°25' E 121°48'4 7.3
2019-Feb-09 15:57N 25°23' E 121°43'3 7.1
2019-Feb-09 15:30N 25°22' E 121°40'1 1.9
2019-Feb-09 14:59N 25°21' E 121°40'2 3.0
2019-Feb-09 14:27N 25°22' E 121°42'1 3.2
2019-Feb-09 14:00N 25°22' E 121°43'2 3.2
2019-Feb-09 13:28N 25°22' E 121°45'2 3.1
2019-Feb-09 12:56N 25°23' E 121°47'1 3.3
2019-Feb-09 12:30N 25°23' E 121°49'5 9.8
2019-Feb-09 12:00N 25°18' E 121°48'6105.1 030 / 291021.9 5.4 16.012.726.0
2019-Feb-09 11:56N 25°23' E 121°51'2 4.5
2019-Feb-09 11:29N 25°22' E 121°53'4 8.2
2019-Feb-09 11:00N 25°19' E 121°54'5 8.8
2019-Feb-09 10:27N 25°15' E 121°57'4 8.7
2019-Feb-09 10:00N 25°11' E 121°59'47 9.6
2019-Feb-09 05:09N 24°41' E 122°39'210.4
2019-Feb-09 04:58N 24°40' E 122°40'2010.3
2019-Feb-09 03:00N 24°24' E 122°54'15 2.1 050 / 141017.2 5.4 24.019.626.0
2019-Feb-08 19:52N 24°37' E 122°45'411.1
2019-Feb-08 19:28N 24°40' E 122°42'1812.2
2019-Feb-08 18:00N 24°48' E 122°24'712.5 350 / 161015.2 5.4 20.011.626.9
2019-Feb-08 17:28N 24°54' E 122°23'2412.2
2019-Feb-08 15:31N 25°08' E 122°01'111.7
2019-Feb-08 15:24N 25°09' E 122°00'510.9
2019-Feb-08 14:58N 25°11' E 121°56'510.6
2019-Feb-08 14:29N 25°12' E 121°50'610.2
2019-Feb-08 13:56N 25°09' E 121°45'1 2.4
2019-Feb-08 13:27N 25°08' E 121°45'0 0.0
2019-Feb-08 12:58N 25°08' E 121°45'0 0.0
2019-Feb-08 12:28N 25°08' E 121°45'3 6.6
2019-Feb-08 12:00N 25°06' E 121°42'3114.2 350 / 41016.2 5.4 16.014.426.9
2019-Feb-08 11:58N 25°08' E 121°45'0 0.0
2019-Feb-08 11:25N 25°08' E 121°45'0 0.0
2019-Feb-08 10:55N 25°08' E 121°45'0 0.0
2019-Feb-08 10:30N 25°08' E 121°45'0 0.0
2019-Feb-08 09:57N 25°08' E 121°45'0 0.0
2019-Feb-08 09:27N 25°08' E 121°45'0 0.0
2019-Feb-08 08:57N 25°08' E 121°45'0 0.0
2019-Feb-08 08:27N 25°08' E 121°45'0 0.0
2019-Feb-08 07:57N 25°08' E 121°45'0 0.7
2019-Feb-08 07:27N 25°08' E 121°45'4 8.0
2019-Feb-08 06:58N 25°12' E 121°45'611.5
2019-Feb-08 06:26N 25°13' E 121°51'613.0
2019-Feb-08 06:00N 25°11' E 121°57'3712.5
2019-Feb-08 03:00N 24°48' E 122°30'12 8.4 040 / 191016.1 5.4 21.016.426.9
2019-Feb-08 01:33N 24°41' E 122°41'46 4.2
2019-Feb-07 14:37N 25°08' E 122°00'210.2
2019-Feb-07 14:27N 25°09' E 121°59'5 9.8
2019-Feb-07 13:59N 25°12' E 121°54'610.4
2019-Feb-07 13:27N 25°12' E 121°48'510.1
2019-Feb-07 13:00N 25°09' E 121°45'1 1.7
2019-Feb-07 12:30N 25°08' E 121°45'0 0.0
2019-Feb-07 12:00N 25°08' E 121°45'0 0.0
2019-Feb-07 11:30N 25°08' E 121°45'0 0.0
2019-Feb-07 11:00N 25°08' E 121°45'0 0.0
2019-Feb-07 10:30N 25°08' E 121°45'0 0.0
2019-Feb-07 10:00N 25°08' E 121°45'0 0.0
2019-Feb-07 09:27N 25°08' E 121°45'0 0.0
2019-Feb-07 08:57N 25°08' E 121°45'0 0.0
2019-Feb-07 08:27N 25°08' E 121°45'0 0.0
2019-Feb-07 07:57N 25°08' E 121°45'0 0.0
2019-Feb-07 07:30N 25°08' E 121°45'0 0.0
2019-Feb-07 07:00N 25°08' E 121°45'0 0.0
2019-Feb-07 06:30N 25°08' E 121°45'0 0.0
2019-Feb-07 06:00N 25°08' E 121°45'0 0.0
2019-Feb-07 05:30N 25°08' E 121°45'1 1.6
2019-Feb-07 04:59N 25°09' E 121°45'610.2
2019-Feb-07 04:26N 25°14' E 121°44'511.0
2019-Feb-07 04:00N 25°18' E 121°47'153633.6
2019-Feb-07 04:00N 25°18' E 121°30'1731.8 290 / 81011.7 5.4 24.019.626.9
2019-Feb-07 03:27N 25°23' E 121°48'2 3.6
2019-Feb-07 02:58N 25°22' E 121°46'1 1.5
2019-Feb-07 02:25N 25°22' E 121°47'1 2.8
2019-Feb-07 01:55N 25°21' E 121°48'2 3.4
2019-Feb-07 01:29N 25°20' E 121°50'2 3.8
2019-Feb-07 00:55N 25°19' E 121°52'511.8
2019-Feb-07 00:27N 25°16' E 121°56'611.2
2019-Feb-06 23:55N 25°13' E 122°02'510.3
2019-Feb-06 23:28N 25°11' E 122°06'510.1
2019-Feb-06 22:59N 25°08' E 122°11'7336.4
2019-Feb-06 21:00N 24°54' E 123°30'19 3.1 330 / 231012.3 5.4 20.020.026.9
2019-Feb-06 15:00N 24°36' E 123°36'33 3.6 170 / 121012.7 5.4 23.020.1
2019-Feb-06 06:00N 24°18' E 124°06'0 0.0 090 / 141011.0 5.4 24.016.5
2019-Feb-06 03:00N 24°18' E 124°06'45 7.5 030 / 61013.810.8 25.020.726.2
2019-Feb-05 21:00N 24°42' E 123°24'3511.6 320 / 231013.110.8 20.020.026.2
2019-Feb-05 18:00N 24°54' E 122°48'   320 / 231013.710.8 21.019.526.7
Track history (hours):
 
Tides and Currents Weather Stations Pressure Air Temp Water Temp Dewpoint Dewpoint Depression Visibility Wind Speed Wind Dir Waves Ship Positions

Norwegian Wind

Operator: Norwegian Cruise Line

Last reported at 2019-Feb-15 18:00 UTC. Time now 2019-Feb-16 04:12 UTC.
Position N 24°48' E 122°24'.

Type: Passenger vessel. MMSI: 308273000.

Wind from 350 at 16 knots

Barometer 1017.3 mb
Air temperature 20.0 ° C
Visibility: greater than 5.4 NM
Dewpoint 18.5 ° C
Water temperature 22.0 ° C

Date/timePositionNaut miles runAvg speedWind from/ knotsBaromVisibWave heightAir tempDewpointWater temp
2019-Feb-15 18:00N 24°48' E 122°24'3310.9 350 / 161017.3 5.4 20.018.522.0
2019-Feb-15 15:00N 25°06' E 121°54'11 3.6 020 / 211018.2 5.4 18.016.425.9
2019-Feb-15 12:00N 25°06' E 121°42'57 6.3 030 / 81018.0 5.4 19.015.925.9
2019-Feb-15 03:00N 24°24' E 122°24'27 4.6 340 / 161018.3 5.4 22.019.025.9
2019-Feb-14 21:00N 24°24' E 122°54'29 9.7 070 / 161016.9 5.4 22.020.625.9
2019-Feb-14 18:00N 24°48' E 122°36'3511.6 060 / 191017.5 2.2 22.020.622.0
2019-Feb-14 15:00N 25°00' E 122°00'812.6 260 / 121019.8 5.4 19.017.526.8
2019-Feb-14 14:20N 25°08' E 122°01'412.2
2019-Feb-14 13:59N 25°11' E 121°57'611.6
2019-Feb-14 13:28N 25°12' E 121°50'511.3
2019-Feb-14 12:59N 25°10' E 121°45'2 3.0
2019-Feb-14 12:25N 25°08' E 121°45'0 0.0
2019-Feb-14 11:58N 25°08' E 121°45'0 0.0
2019-Feb-14 11:28N 25°08' E 121°45'0 0.0
2019-Feb-14 10:58N 25°08' E 121°45'0 0.0
2019-Feb-14 10:25N 25°08' E 121°45'0 0.0
2019-Feb-14 09:58N 25°08' E 121°45'0 0.0
2019-Feb-14 09:28N 25°08' E 121°45'0 0.0
2019-Feb-14 08:56N 25°08' E 121°45'0 0.0
2019-Feb-14 08:28N 25°08' E 121°45'0 0.0
2019-Feb-14 08:00N 25°08' E 121°45'0 0.0
2019-Feb-14 07:30N 25°08' E 121°45'0 0.0
2019-Feb-14 06:57N 25°08' E 121°45'0 0.0
2019-Feb-14 06:30N 25°08' E 121°45'0 0.0
2019-Feb-14 06:00N 25°08' E 121°45'0 0.7
2019-Feb-14 05:29N 25°08' E 121°45'3 5.0
2019-Feb-14 04:58N 25°11' E 121°45'611.4
2019-Feb-14 04:26N 25°17' E 121°44'613.5
2019-Feb-14 04:00N 25°23' E 121°43'2 1.8
2019-Feb-14 03:00N 25°24' E 121°42'5302.8 020 / 231021.2 5.4 19.015.926.8
2019-Feb-14 02:58N 25°25' E 121°48'5 9.6
2019-Feb-14 02:26N 25°21' E 121°50'4 9.0
2019-Feb-14 01:59N 25°17' E 121°53'4 8.5
2019-Feb-14 01:27N 25°14' E 121°56'4 9.0
2019-Feb-14 01:00N 25°12' E 122°00'5 8.6
2019-Feb-14 00:28N 25°11' E 122°05'4 8.3
2019-Feb-13 23:56N 25°10' E 122°10'50 8.5
2019-Feb-13 18:00N 24°48' E 123°00'67 7.5 070 / 161018.410.8 22.020.625.9
2019-Feb-13 09:00N 24°18' E 124°06'50 4.2 020 / 81018.1 5.4 23.020.125.9
2019-Feb-12 21:00N 24°42' E 123°18'4515.1 250 / 121019.510.8 22.022.025.9
2019-Feb-12 18:00N 24°54' E 122°30'29 7.9 240 / 161018.910.8 21.021.025.9
2019-Feb-12 14:20N 25°09' E 122°03'1611.3
2019-Feb-12 12:57N 25°09' E 121°45'1 2.7
2019-Feb-12 12:31N 25°08' E 121°45'0 0.0
2019-Feb-12 11:59N 25°08' E 121°45'0 0.0
2019-Feb-12 11:29N 25°08' E 121°45'0 0.0
2019-Feb-12 11:00N 25°08' E 121°45'0 0.0
2019-Feb-12 10:28N 25°08' E 121°45'0 0.0
2019-Feb-12 09:58N 25°08' E 121°45'0 0.0
2019-Feb-12 09:28N 25°08' E 121°45'0 0.0
2019-Feb-12 08:58N 25°08' E 121°45'0 0.0
2019-Feb-12 08:28N 25°08' E 121°45'0 0.0
2019-Feb-12 07:58N 25°08' E 121°45'0 0.0
2019-Feb-12 07:21N 25°08' E 121°45'0 0.0
2019-Feb-12 06:57N 25°08' E 121°45'0 0.2
2019-Feb-12 06:28N 25°08' E 121°45'2 3.6
2019-Feb-12 05:57N 25°10' E 121°45'613.4
2019-Feb-12 05:30N 25°16' E 121°45'611.4
2019-Feb-12 04:59N 25°19' E 121°50'815.1
2019-Feb-12 04:28N 25°14' E 121°57'917.1
2019-Feb-12 03:58N 25°12' E 122°06'816.1
2019-Feb-12 03:28N 25°11' E 122°15'1530.5
2019-Feb-12 03:00N 25°06' E 122°30'8714.5 080 / 171023.4 5.4 22.019.025.9
2019-Feb-11 21:00N 25°00' E 124°06'4916.4 040 / 211022.4 5.4 20.018.525.9
2019-Feb-11 18:00N 24°54' E 125°00'12 4.1 050 / 191022.2 5.4 20.018.522.9
2019-Feb-11 15:00N 24°48' E 125°12'0 0.0 050 / 191023.2 5.4 20.016.925.9
2019-Feb-11 12:00N 24°48' E 125°12'49 3.3 050 / 211023.8 5.4 20.016.925.9
2019-Feb-10 21:00N 24°54' E 124°18'3311.1 010 / 291020.6 5.4 20.016.925.9
2019-Feb-10 18:00N 25°00' E 123°42'6610.9 030 / 191020.6 5.4 21.016.419.7
2019-Feb-10 12:00N 25°06' E 122°30'1014.0 030 / 191021.7 5.4 20.016.919.7
2019-Feb-10 11:15N 25°10' E 122°19'415.3
2019-Feb-10 10:58N 25°10' E 122°15'715.5
2019-Feb-10 10:29N 25°11' E 122°07'916.6
2019-Feb-10 09:57N 25°12' E 121°57'816.2
2019-Feb-10 09:26N 25°12' E 121°48'4 9.9
2019-Feb-10 08:59N 25°08' E 121°45'1 1.0
2019-Feb-10 08:28N 25°08' E 121°45'0 0.0
2019-Feb-10 07:55N 25°08' E 121°45'0 0.0
2019-Feb-10 07:25N 25°08' E 121°45'0 0.0
2019-Feb-10 06:55N 25°08' E 121°45'0 0.0
2019-Feb-10 06:22N 25°08' E 121°45'0 0.0
2019-Feb-10 05:58N 25°08' E 121°45'0 0.0
2019-Feb-10 05:28N 25°08' E 121°45'0 0.0
2019-Feb-10 04:58N 25°08' E 121°45'0 0.0
2019-Feb-10 04:25N 25°08' E 121°45'0 0.0
2019-Feb-10 03:55N 25°08' E 121°45'0 0.0
2019-Feb-10 03:25N 25°08' E 121°45'0 0.0
2019-Feb-10 02:58N 25°08' E 121°45'0 0.3
2019-Feb-10 02:27N 25°08' E 121°45'2 3.8
2019-Feb-10 01:58N 25°10' E 121°45'613.6
2019-Feb-10 01:30N 25°16' E 121°43'611.8
2019-Feb-10 00:58N 25°19' E 121°49'814.6
2019-Feb-10 00:27N 25°19' E 121°57'511.3
2019-Feb-10 00:00N 25°17' E 121°52'610.8
2019-Feb-09 23:28N 25°16' E 121°46'1 2.1
2019-Feb-09 22:59N 25°17' E 121°46'1 2.1
2019-Feb-09 22:28N 25°18' E 121°47'1 1.7
2019-Feb-09 21:56N 25°19' E 121°47'1 1.7
2019-Feb-09 21:30N 25°20' E 121°47'2 3.4
2019-Feb-09 21:00N 25°18' E 121°48'376.7 020 / 251020.5 5.4 16.014.419.7
2019-Feb-09 20:57N 25°21' E 121°48'1 1.8
2019-Feb-09 20:27N 25°21' E 121°48'1 1.7
2019-Feb-09 19:55N 25°22' E 121°48'1 2.3
2019-Feb-09 19:30N 25°23' E 121°48'1 1.8
2019-Feb-09 19:00N 25°24' E 121°48'1 2.0
2019-Feb-09 18:30N 25°25' E 121°49'1 2.1
2019-Feb-09 17:58N 25°26' E 121°50'1 2.3
2019-Feb-09 17:25N 25°26' E 121°51'1 1.5
2019-Feb-09 16:57N 25°26' E 121°51'4 7.6
2019-Feb-09 16:30N 25°25' E 121°48'4 7.3
2019-Feb-09 15:57N 25°23' E 121°43'3 7.1
2019-Feb-09 15:30N 25°22' E 121°40'1 1.9
2019-Feb-09 14:59N 25°21' E 121°40'2 3.0
2019-Feb-09 14:27N 25°22' E 121°42'1 3.2
2019-Feb-09 14:00N 25°22' E 121°43'2 3.2
2019-Feb-09 13:28N 25°22' E 121°45'2 3.1
2019-Feb-09 12:56N 25°23' E 121°47'1 3.3
2019-Feb-09 12:30N 25°23' E 121°49'5 9.8
2019-Feb-09 12:00N 25°18' E 121°48'6105.1 030 / 291021.9 5.4 16.012.726.0
2019-Feb-09 11:56N 25°23' E 121°51'2 4.5
2019-Feb-09 11:29N 25°22' E 121°53'4 8.2
2019-Feb-09 11:00N 25°19' E 121°54'5 8.8
2019-Feb-09 10:27N 25°15' E 121°57'4 8.7
2019-Feb-09 10:00N 25°11' E 121°59'47 9.6
2019-Feb-09 05:09N 24°41' E 122°39'210.4
2019-Feb-09 04:58N 24°40' E 122°40'2010.3
2019-Feb-09 03:00N 24°24' E 122°54'15 2.1 050 / 141017.2 5.4 24.019.626.0
2019-Feb-08 19:52N 24°37' E 122°45'411.1
2019-Feb-08 19:28N 24°40' E 122°42'1812.2
2019-Feb-08 18:00N 24°48' E 122°24'712.5 350 / 161015.2 5.4 20.011.626.9
2019-Feb-08 17:28N 24°54' E 122°23'2412.2
2019-Feb-08 15:31N 25°08' E 122°01'111.7
2019-Feb-08 15:24N 25°09' E 122°00'510.9
2019-Feb-08 14:58N 25°11' E 121°56'510.6
2019-Feb-08 14:29N 25°12' E 121°50'610.2
2019-Feb-08 13:56N 25°09' E 121°45'1 2.4
2019-Feb-08 13:27N 25°08' E 121°45'0 0.0
2019-Feb-08 12:58N 25°08' E 121°45'0 0.0
2019-Feb-08 12:28N 25°08' E 121°45'3 6.6
2019-Feb-08 12:00N 25°06' E 121°42'3114.2 350 / 41016.2 5.4 16.014.426.9
2019-Feb-08 11:58N 25°08' E 121°45'0 0.0
2019-Feb-08 11:25N 25°08' E 121°45'0 0.0
2019-Feb-08 10:55N 25°08' E 121°45'0 0.0
2019-Feb-08 10:30N 25°08' E 121°45'0 0.0
2019-Feb-08 09:57N 25°08' E 121°45'0 0.0
2019-Feb-08 09:27N 25°08' E 121°45'0 0.0
2019-Feb-08 08:57N 25°08' E 121°45'0 0.0
2019-Feb-08 08:27N 25°08' E 121°45'0 0.0
2019-Feb-08 07:57N 25°08' E 121°45'0 0.7
2019-Feb-08 07:27N 25°08' E 121°45'4 8.0
2019-Feb-08 06:58N 25°12' E 121°45'611.5
2019-Feb-08 06:26N 25°13' E 121°51'613.0
2019-Feb-08 06:00N 25°11' E 121°57'3712.5
2019-Feb-08 03:00N 24°48' E 122°30'12 8.4 040 / 191016.1 5.4 21.016.426.9
2019-Feb-08 01:33N 24°41' E 122°41'46 4.2
2019-Feb-07 14:37N 25°08' E 122°00'210.2
2019-Feb-07 14:27N 25°09' E 121°59'5 9.8
2019-Feb-07 13:59N 25°12' E 121°54'610.4
2019-Feb-07 13:27N 25°12' E 121°48'510.1
2019-Feb-07 13:00N 25°09' E 121°45'1 1.7
2019-Feb-07 12:30N 25°08' E 121°45'0 0.0
2019-Feb-07 12:00N 25°08' E 121°45'0 0.0
2019-Feb-07 11:30N 25°08' E 121°45'0 0.0
2019-Feb-07 11:00N 25°08' E 121°45'0 0.0
2019-Feb-07 10:30N 25°08' E 121°45'0 0.0
2019-Feb-07 10:00N 25°08' E 121°45'0 0.0
2019-Feb-07 09:27N 25°08' E 121°45'0 0.0
2019-Feb-07 08:57N 25°08' E 121°45'0 0.0
2019-Feb-07 08:27N 25°08' E 121°45'0 0.0
2019-Feb-07 07:57N 25°08' E 121°45'0 0.0
2019-Feb-07 07:30N 25°08' E 121°45'0 0.0
2019-Feb-07 07:00N 25°08' E 121°45'0 0.0
2019-Feb-07 06:30N 25°08' E 121°45'0 0.0
2019-Feb-07 06:00N 25°08' E 121°45'0 0.0
2019-Feb-07 05:30N 25°08' E 121°45'1 1.6
2019-Feb-07 04:59N 25°09' E 121°45'610.2
2019-Feb-07 04:26N 25°14' E 121°44'511.0
2019-Feb-07 04:00N 25°18' E 121°47'153633.6
2019-Feb-07 04:00N 25°18' E 121°30'1731.8 290 / 81011.7 5.4 24.019.626.9
2019-Feb-07 03:27N 25°23' E 121°48'2 3.6
2019-Feb-07 02:58N 25°22' E 121°46'1 1.5
2019-Feb-07 02:25N 25°22' E 121°47'1 2.8
2019-Feb-07 01:55N 25°21' E 121°48'2 3.4
2019-Feb-07 01:29N 25°20' E 121°50'2 3.8
2019-Feb-07 00:55N 25°19' E 121°52'511.8
2019-Feb-07 00:27N 25°16' E 121°56'611.2
2019-Feb-06 23:55N 25°13' E 122°02'510.3
2019-Feb-06 23:28N 25°11' E 122°06'510.1
2019-Feb-06 22:59N 25°08' E 122°11'7336.4
2019-Feb-06 21:00N 24°54' E 123°30'19 3.1 330 / 231012.3 5.4 20.020.026.9
2019-Feb-06 15:00N 24°36' E 123°36'33 3.6 170 / 121012.7 5.4 23.020.1
2019-Feb-06 06:00N 24°18' E 124°06'0 0.0 090 / 141011.0 5.4 24.016.5
2019-Feb-06 03:00N 24°18' E 124°06'45 7.5 030 / 61013.810.8 25.020.726.2
2019-Feb-05 21:00N 24°42' E 123°24'3511.6 320 / 231013.110.8 20.020.026.2
2019-Feb-05 18:00N 24°54' E 122°48'   320 / 231013.710.8 21.019.526.7

Dump ship's entire track history